Time;durP1;ratioP1;P1;durP2;ratioP2;P2;SDS_P1;SDS_P2;PMS_P1;PMS_P2;Temp;Humidity;BMP_temperature;BMP_pressure;BME280_temperature;BME280_humidity;BME280_pressure;Samples;Min_cycle;Max_cycle;Signal;HPM_P1;HPM_P2
2021/06/04 00:02:03;;;;;;;3.85;1.85;;;;;;;19.76;80.51;101114.16;5266995;28;20023;-79
2021/06/04 00:04:33;;;;;;;5.70;1.83;;;;;;;19.77;81.19;101111.38;5261679;28;20020;-79
2021/06/04 00:07:06;;;;;;;4.47;1.80;;;;;;;19.69;81.86;101119.00;5256445;28;20486;-79
2021/06/04 00:09:36;;;;;;;2.72;1.80;;;;;;;19.62;82.85;101114.16;5271656;28;20084;-79
2021/06/04 00:12:07;;;;;;;3.70;1.80;;;;;;;19.51;83.85;101104.25;5279098;28;20537;-78
2021/06/04 00:14:41;;;;;;;4.43;2.17;;;;;;;19.38;85.50;101111.28;5282913;28;20312;-79
2021/06/04 00:17:15;;;;;;;3.17;2.00;;;;;;;19.25;87.59;101112.16;5278900;28;20031;-79
2021/06/04 00:19:47;;;;;;;3.97;1.88;;;;;;;19.30;87.15;101110.06;5260345;28;20604;-79
2021/06/04 00:22:24;;;;;;;3.50;1.92;;;;;;;19.42;86.34;101106.63;5270864;28;20020;-79
2021/06/04 00:24:56;;;;;;;2.55;1.83;;;;;;;19.66;83.72;101108.59;5263935;28;20024;-79
2021/06/04 00:27:26;;;;;;;4.10;2.10;;;;;;;19.78;83.03;101107.75;5280913;28;20077;-79
2021/06/04 00:29:57;;;;;;;5.05;2.13;;;;;;;19.58;84.14;101100.25;5281244;28;20473;-79
2021/06/04 00:32:28;;;;;;;4.95;1.98;;;;;;;19.68;82.86;101093.41;5280359;28;20039;-78
2021/06/04 00:34:58;;;;;;;5.00;1.90;;;;;;;19.53;83.65;101102.34;5283946;28;20053;-79
2021/06/04 00:37:28;;;;;;;6.95;2.20;;;;;;;19.49;84.36;101106.16;5255787;28;20026;-79
2021/06/04 00:39:59;;;;;;;4.80;1.90;;;;;;;19.30;84.60;101102.09;5254275;28;20031;-78
2021/06/04 00:42:34;;;;;;;3.60;1.90;;;;;;;19.27;84.51;101105.78;5280645;28;20031;-79
2021/06/04 00:45:10;;;;;;;3.38;2.10;;;;;;;19.29;84.37;101114.50;5281126;28;20641;-79
2021/06/04 00:47:41;;;;;;;4.60;1.90;;;;;;;19.30;84.65;101110.06;5276718;28;20080;-79
2021/06/04 00:50:14;;;;;;;4.55;2.42;;;;;;;19.36;84.34;101104.34;5277312;28;20016;-79
2021/06/04 00:52:45;;;;;;;5.40;2.20;;;;;;;19.47;85.07;101102.72;5271470;28;20024;-79
2021/06/04 00:55:19;;;;;;;6.80;2.20;;;;;;;19.24;85.96;101110.44;5281082;28;20024;-79
2021/06/04 00:57:50;;;;;;;5.75;2.17;;;;;;;19.25;87.08;101109.50;5279545;28;20414;-79
2021/06/04 01:00:37;;;;;;;3.20;2.13;;;;;;;19.06;88.99;101112.41;5280220;28;20027;-78
2021/06/04 01:03:10;;;;;;;3.92;2.20;;;;;;;19.09;89.07;101111.38;5275113;28;20028;-79
2021/06/04 01:05:42;;;;;;;3.03;1.90;;;;;;;19.08;88.99;101115.78;5282363;28;20492;-79
2021/06/04 01:08:27;;;;;;;3.20;2.30;;;;;;;19.03;91.06;101112.59;5268780;28;20101;-78
2021/06/04 01:11:32;;;;;;;4.00;2.10;;;;;;;19.19;89.97;101108.06;5280136;28;20532;-79
2021/06/04 01:14:22;;;;;;;3.55;2.30;;;;;;;19.04;91.04;101110.78;5218561;28;20044;-79
2021/06/04 01:17:26;;;;;;;3.95;2.30;;;;;;;18.99;91.68;101100.47;5281150;28;20047;-79
2021/06/04 01:20:10;;;;;;;7.00;2.30;;;;;;;18.98;93.17;101092.63;5279094;28;20031;-79
2021/06/04 01:22:53;;;;;;;9.15;2.70;;;;;;;18.21;97.59;101091.13;5269837;28;20089;-78
2021/06/04 01:25:53;;;;;;;10.05;2.83;;;;;;;18.18;98.88;101087.81;5282285;28;20016;-78
2021/06/04 01:28:29;;;;;;;11.45;2.80;;;;;;;18.04;100.00;101079.81;5263798;28;20027;-78
2021/06/04 01:31:12;;;;;;;5.13;2.70;;;;;;;18.10;100.00;101082.09;5282300;28;20023;-78
2021/06/04 01:33:56;;;;;;;6.13;2.55;;;;;;;18.30;99.85;101077.41;5266209;28;20529;-78
2021/06/04 01:36:35;;;;;;;2.90;2.38;;;;;;;18.42;100.00;101084.63;5282205;28;20035;-78
2021/06/04 01:39:11;;;;;;;4.90;2.70;;;;;;;18.28;100.00;101081.06;5279643;28;20024;-78
2021/06/04 01:41:43;;;;;;;;;;;;;;;18.25;100.00;101083.84;5268977;28;20087;-78
2021/06/04 01:44:29;;;;;;;3.60;3.10;;;;;;;18.09;100.00;101088.34;5267960;28;19911;-78
2021/06/04 01:47:07;;;;;;;4.70;3.05;;;;;;;17.97;100.00;101081.97;5284012;28;20024;-78
2021/06/04 01:49:41;;;;;;;4.35;3.05;;;;;;;18.11;100.00;101075.88;5279789;28;20028;-78
2021/06/04 01:52:17;;;;;;;4.20;2.65;;;;;;;18.29;100.00;101080.13;5268565;28;20026;-78
2021/06/04 01:54:54;;;;;;;4.50;3.22;;;;;;;17.85;100.00;101079.19;5267753;28;20509;-78
2021/06/04 01:57:49;;;;;;;5.68;3.40;;;;;;;17.90;100.00;101078.00;5285457;28;20121;-78
2021/06/04 02:00:30;;;;;;;4.82;3.35;;;;;;;18.01;100.00;101077.38;5283796;28;20541;-78
2021/06/04 02:03:01;;;;;;;4.30;2.97;;;;;;;18.15;100.00;101074.78;5283259;28;20038;-78
2021/06/04 02:05:34;;;;;;;4.20;2.90;;;;;;;18.15;100.00;101066.84;5287138;28;20019;-78
2021/06/04 02:08:10;;;;;;;4.07;2.92;;;;;;;18.20;100.00;101080.66;5275702;28;20035;-78
2021/06/04 02:10:46;;;;;;;4.20;3.00;;;;;;;18.33;100.00;101076.38;5264975;28;20028;-78
2021/06/04 02:13:17;;;;;;;4.57;3.20;;;;;;;18.15;100.00;101069.47;5268551;28;20019;-78
2021/06/04 02:15:52;;;;;;;5.85;3.47;;;;;;;18.01;100.00;101064.97;5284418;28;20046;-79
2021/06/04 02:18:37;;;;;;;4.85;3.17;;;;;;;18.24;100.00;101063.63;5282103;28;20073;-78
2021/06/04 02:21:21;;;;;;;6.75;3.10;;;;;;;18.47;100.00;101069.31;5263801;28;20024;-78
2021/06/04 02:24:09;;;;;;;11.20;3.85;;;;;;;18.57;100.00;101067.81;5266728;28;20070;-78
2021/06/04 02:26:53;;;;;;;4.97;3.38;;;;;;;18.29;100.00;101065.09;5263036;28;20509;-78
2021/06/04 02:29:34;;;;;;;3.85;3.20;;;;;;;18.33;100.00;101058.69;5261817;28;20026;-78
2021/06/04 02:32:16;;;;;;;6.43;3.42;;;;;;;18.17;100.00;101049.91;5286441;28;20023;-78
2021/06/04 02:34:51;;;;;;;6.93;2.95;;;;;;;18.17;100.00;101060.50;5265433;28;20028;-78
2021/06/04 02:37:36;;;;;;;4.60;2.80;;;;;;;18.23;100.00;101064.56;5281441;28;20024;-78
2021/06/04 02:40:22;;;;;;;6.00;3.22;;;;;;;18.28;100.00;101066.06;5260064;28;20019;-78
2021/06/04 02:43:16;;;;;;;8.05;3.53;;;;;;;18.06;100.00;101072.66;5287101;28;20720;-78
2021/06/04 02:45:54;;;;;;;7.70;3.47;;;;;;;18.05;100.00;101076.25;5263206;28;20027;-78
2021/06/04 02:48:26;;;;;;;5.47;3.10;;;;;;;18.25;100.00;101074.16;5265981;28;20072;-78
2021/06/04 02:51:11;;;;;;;5.45;3.20;;;;;;;18.33;100.00;101077.22;5271228;28;20034;-78
2021/06/04 02:53:50;;;;;;;6.27;3.40;;;;;;;18.37;100.00;101083.19;5264845;28;20024;-78
2021/06/04 02:56:26;;;;;;;3.67;2.75;;;;;;;18.24;100.00;101083.03;5270281;28;20024;-78
2021/06/04 02:59:06;;;;;;;4.43;3.20;;;;;;;18.03;100.00;101078.13;5268657;28;20047;-78
2021/06/04 03:01:45;;;;;;;4.05;3.22;;;;;;;17.99;100.00;101082.72;5281372;28;20020;-78
2021/06/04 03:04:16;;;;;;;5.88;3.50;;;;;;;17.95;100.00;101080.34;5288133;28;20027;-78
2021/06/04 03:06:52;;;;;;;11.23;4.00;;;;;;;17.83;100.00;101070.50;5282294;28;20039;-78
2021/06/04 03:09:30;;;;;;;5.45;3.45;;;;;;;17.67;100.00;101065.22;5281868;28;20024;-78
2021/06/04 03:12:07;;;;;;;4.47;3.20;;;;;;;17.87;100.00;101067.59;5270473;28;20026;-78
2021/06/04 03:14:37;;;;;;;3.78;3.25;;;;;;;17.85;100.00;101066.81;5264557;28;20246;-79
2021/06/04 03:17:10;;;;;;;6.35;3.60;;;;;;;17.57;100.00;101068.47;5272404;28;20020;-78
2021/06/04 03:19:40;;;;;;;6.55;3.67;;;;;;;17.72;100.00;101072.88;5269416;28;20019;-79
2021/06/04 03:22:33;;;;;;;4.55;3.47;;;;;;;17.95;100.00;101072.41;5272106;28;20047;-79
2021/06/04 03:25:10;;;;;;;5.25;3.50;;;;;;;18.02;100.00;101071.13;5272056;28;20464;-78
2021/06/04 03:27:40;;;;;;;7.40;3.83;;;;;;;17.91;100.00;101071.75;5266110;28;20024;-78
2021/06/04 03:30:11;;;;;;;6.15;3.22;;;;;;;17.87;100.00;101067.59;5271028;28;20046;-78
2021/06/04 03:32:42;;;;;;;5.28;3.83;;;;;;;17.73;100.00;101074.59;5272719;28;20047;-78
2021/06/04 03:35:14;;;;;;;8.38;3.95;;;;;;;17.57;100.00;101074.63;5289938;28;20031;-79
2021/06/04 03:37:44;;;;;;;12.05;4.20;;;;;;;17.60;100.00;101079.72;5267642;28;20039;-78
2021/06/04 03:40:17;;;;;;;7.03;3.70;;;;;;;17.78;100.00;101077.81;5267617;28;20020;-78
2021/06/04 03:42:49;;;;;;;5.53;3.47;;;;;;;18.00;100.00;101091.53;5292973;28;20044;-78
2021/06/04 03:45:31;;;;;;;6.35;3.75;;;;;;;18.07;100.00;101096.38;5273499;28;20073;-78
2021/06/04 03:48:02;;;;;;;7.25;3.33;;;;;;;18.01;100.00;101096.72;5290786;28;20024;-79
2021/06/04 03:50:33;;;;;;;6.82;3.50;;;;;;;17.87;100.00;101095.81;5271426;28;20051;-78
2021/06/04 03:53:06;;;;;;;5.38;3.53;;;;;;;17.98;100.00;101099.53;5281198;28;20528;-78
2021/06/04 03:55:39;;;;;;;5.70;3.25;;;;;;;18.05;100.00;101105.34;5262292;28;20023;-78
2021/06/04 03:58:10;;;;;;;5.65;3.80;;;;;;;18.15;100.00;101103.88;5262742;28;20031;-79
2021/06/04 04:00:51;;;;;;;4.32;3.50;;;;;;;18.24;100.00;101103.31;5258154;28;20486;-78
2021/06/04 04:03:24;;;;;;;4.70;3.40;;;;;;;18.06;100.00;101104.41;5282618;28;20100;-78
2021/06/04 04:05:55;;;;;;;6.68;3.40;;;;;;;17.99;100.00;101103.91;5272678;28;20195;-79
2021/06/04 04:08:27;;;;;;;4.60;3.60;;;;;;;18.21;100.00;101099.06;5275465;28;20516;-79
2021/06/04 04:10:59;;;;;;;6.90;3.72;;;;;;;18.00;100.00;101102.13;5279472;28;20031;-79
2021/06/04 04:13:29;;;;;;;5.72;3.75;;;;;;;17.99;100.00;101108.34;5284165;28;20529;-79
2021/06/04 04:16:01;;;;;;;5.45;3.65;;;;;;;17.93;100.00;101113.97;5270279;28;20062;-78
2021/06/04 04:18:31;;;;;;;5.32;3.40;;;;;;;18.03;100.00;101115.16;5267078;28;20036;-79
2021/06/04 04:21:05;;;;;;;5.72;3.80;;;;;;;17.82;100.00;101114.59;5277584;28;20024;-79
2021/06/04 04:23:46;;;;;;;4.50;3.45;;;;;;;17.84;100.00;101106.56;5271909;28;20055;-79
2021/06/04 04:26:20;;;;;;;4.50;3.50;;;;;;;17.90;100.00;101108.88;5253598;28;20020;-79
2021/06/04 04:28:51;;;;;;;5.03;3.40;;;;;;;17.94;100.00;101110.38;5254303;28;20030;-79
2021/06/04 04:31:24;;;;;;;4.93;3.47;;;;;;;17.87;100.00;101119.63;5274712;28;20028;-79
2021/06/04 04:33:57;;;;;;;5.57;4.38;;;;;;;17.98;100.00;101111.94;5258526;28;20398;-79
2021/06/04 04:36:37;;;;;;;9.63;5.30;;;;;;;18.02;100.00;101103.72;5251949;28;20015;-79
2021/06/04 04:39:13;;;;;;;9.73;5.47;;;;;;;18.15;100.00;101111.81;5273824;28;20032;-79
2021/06/04 04:41:44;;;;;;;8.27;5.43;;;;;;;18.25;100.00;101105.91;5261682;28;20104;-79
2021/06/04 04:44:18;;;;;;;7.22;5.07;;;;;;;18.22;100.00;101111.38;5264402;28;20026;-79
2021/06/04 04:46:48;;;;;;;8.02;6.03;;;;;;;18.23;100.00;101110.44;5269895;28;20039;-79
2021/06/04 04:49:19;;;;;;;7.32;5.25;;;;;;;18.34;100.00;101100.09;5281076;28;20078;-79
2021/06/04 04:51:49;;;;;;;9.02;5.47;;;;;;;18.41;100.00;101100.56;5274044;28;20031;-79
2021/06/04 04:54:20;;;;;;;8.77;5.28;;;;;;;18.53;100.00;101103.34;5271924;28;20112;-79
2021/06/04 04:56:50;;;;;;;10.00;5.97;;;;;;;18.60;100.00;101107.34;5243530;28;20029;-79
2021/06/04 04:59:21;;;;;;;10.02;5.90;;;;;;;18.76;100.00;101110.78;5264710;28;20028;-79
2021/06/04 05:01:51;;;;;;;10.75;5.88;;;;;;;18.72;100.00;101111.03;5254988;28;20030;-79
2021/06/04 05:04:21;;;;;;;8.40;6.43;;;;;;;18.63;100.00;101106.28;5261599;28;20020;-79
2021/06/04 05:06:52;;;;;;;11.85;6.47;;;;;;;18.72;100.00;101111.03;5277515;28;20298;-79
2021/06/04 05:09:22;;;;;;;9.85;6.10;;;;;;;18.88;100.00;101108.22;5257288;28;20118;-79
2021/06/04 05:11:53;;;;;;;11.23;5.53;;;;;;;18.90;100.00;101106.34;5261409;28;20106;-79
2021/06/04 05:14:24;;;;;;;8.60;5.60;;;;;;;19.09;100.00;101114.00;5261563;28;20047;-79
2021/06/04 05:16:54;;;;;;;8.55;5.68;;;;;;;19.31;100.00;101119.72;5276432;28;20062;-79
2021/06/04 05:19:24;;;;;;;7.10;4.63;;;;;;;19.47;100.00;101115.16;5270000;28;20046;-79
2021/06/04 05:21:55;;;;;;;9.00;6.10;;;;;;;18.97;100.00;101112.94;5252172;28;20024;-79
2021/06/04 05:24:27;;;;;;;8.93;5.38;;;;;;;19.18;100.00;101106.38;5253050;28;20305;-79
2021/06/04 05:26:57;;;;;;;7.65;5.30;;;;;;;19.44;100.00;101102.91;5278155;28;20027;-80
2021/06/04 05:29:27;;;;;;;9.80;5.55;;;;;;;19.44;100.00;101113.53;5264795;28;20050;-80
2021/06/04 05:31:58;;;;;;;7.07;5.97;;;;;;;19.37;100.00;101109.56;5282477;28;20024;-80
2021/06/04 05:34:29;;;;;;;9.20;5.93;;;;;;;19.15;100.00;101111.84;5284241;28;20439;-80
2021/06/04 05:37:00;;;;;;;10.07;6.32;;;;;;;18.99;100.00;101105.78;5256006;28;20532;-80
2021/06/04 05:39:30;;;;;;;9.90;6.28;;;;;;;19.05;100.00;101113.34;5277214;28;20659;-80
2021/06/04 05:42:04;;;;;;;10.90;6.70;;;;;;;19.08;100.00;101114.97;5285442;28;20038;-80
2021/06/04 05:44:36;;;;;;;9.60;6.53;;;;;;;19.24;100.00;101116.59;5259933;28;20440;-80
2021/06/04 05:47:10;;;;;;;8.65;5.97;;;;;;;19.47;100.00;101108.03;5265437;28;20024;-80
2021/06/04 05:49:41;;;;;;;11.55;6.55;;;;;;;19.58;100.00;101104.72;5281386;28;20416;-80
2021/06/04 05:52:15;;;;;;;9.57;6.57;;;;;;;19.73;100.00;101109.88;5278950;28;20040;-80
2021/06/04 05:54:47;;;;;;;11.18;6.90;;;;;;;19.49;100.00;101106.16;5281268;28;20024;-80
2021/06/04 05:57:18;;;;;;;10.07;6.43;;;;;;;19.71;100.00;101116.22;5276256;28;20024;-80
2021/06/04 05:59:49;;;;;;;8.40;6.28;;;;;;;19.93;100.00;101112.09;5253585;28;20020;-80
2021/06/04 06:02:19;;;;;;;9.30;6.60;;;;;;;20.31;100.00;101109.59;5257806;28;20038;-80
2021/06/04 06:04:50;;;;;;;12.27;6.85;;;;;;;20.08;100.00;101111.09;5275694;28;20020;-80
2021/06/04 06:07:20;;;;;;;8.50;6.47;;;;;;;20.30;100.00;101110.53;5252536;28;20088;-80
2021/06/04 06:09:50;;;;;;;11.40;7.22;;;;;;;20.93;99.37;101115.00;5256056;28;20302;-80
2021/06/04 06:12:20;;;;;;;9.35;6.43;;;;;;;22.11;92.68;101113.44;5263369;28;20095;-81
2021/06/04 06:14:51;;;;;;;9.25;6.68;;;;;;;22.35;89.05;101108.94;5258813;28;20267;-81
2021/06/04 06:17:21;;;;;;;8.50;6.78;;;;;;;22.73;86.55;101116.63;5267895;28;20020;-81
2021/06/04 06:19:51;;;;;;;11.20;7.03;;;;;;;22.21;89.14;101122.44;5257126;28;20093;-81
2021/06/04 06:22:22;;;;;;;9.77;7.67;;;;;;;21.89;88.63;101118.69;5252100;28;20499;-81
2021/06/04 06:24:52;;;;;;;11.02;7.22;;;;;;;23.10;86.97;101114.59;5259335;28;20274;-81
2021/06/04 06:27:22;;;;;;;12.68;7.75;;;;;;;22.58;86.98;101116.94;5277101;28;20618;-81
2021/06/04 06:29:53;;;;;;;11.43;6.90;;;;;;;23.80;82.72;101124.88;5279781;28;20036;-80
2021/06/04 06:32:23;;;;;;;11.02;7.10;;;;;;;23.08;86.34;101122.72;5262270;28;20031;-81
2021/06/04 06:34:54;;;;;;;9.87;7.07;;;;;;;23.57;81.98;101127.72;5262711;28;20024;-81
2021/06/04 06:37:24;;;;;;;9.68;6.63;;;;;;;23.60;82.29;101128.31;5271102;28;20278;-80
2021/06/04 06:39:54;;;;;;;11.32;6.45;;;;;;;23.12;85.94;101129.53;5255074;28;20069;-80
2021/06/04 06:42:26;;;;;;;9.32;6.60;;;;;;;23.39;83.91;101135.34;5257852;28;20447;-80
2021/06/04 06:44:56;;;;;;;10.05;6.75;;;;;;;23.61;84.08;101130.00;5276134;28;20040;-81
2021/06/04 06:47:26;;;;;;;10.37;7.40;;;;;;;23.05;85.53;101133.59;5275737;28;20027;-81
2021/06/04 06:49:56;;;;;;;9.40;7.33;;;;;;;23.40;84.98;101141.56;5278848;28;20277;-81
2021/06/04 06:52:29;;;;;;;10.10;7.22;;;;;;;23.67;84.50;101134.84;5260255;28;20866;-80
2021/06/04 06:55:00;;;;;;;15.65;7.78;;;;;;;23.41;84.92;101144.09;5256861;28;20062;-80
2021/06/04 06:57:30;;;;;;;12.13;7.45;;;;;;;22.62;86.11;101141.53;5271340;28;20415;-80
2021/06/04 07:00:01;;;;;;;13.27;7.32;;;;;;;22.47;87.14;101151.56;5278630;28;20030;-80
2021/06/04 07:02:32;;;;;;;14.57;8.07;;;;;;;22.49;85.93;101144.28;5258031;28;20525;-80
2021/06/04 07:05:03;;;;;;;11.73;7.30;;;;;;;23.81;82.81;101139.94;5260826;28;20032;-80
2021/06/04 07:07:33;;;;;;;15.20;8.35;;;;;;;23.22;81.94;101151.84;5268525;28;20286;-80
2021/06/04 07:10:04;;;;;;;12.10;6.70;;;;;;;24.09;81.25;101149.22;5272814;28;20049;-81
2021/06/04 07:12:35;;;;;;;12.18;8.07;;;;;;;23.95;80.38;101146.84;5275698;28;20289;-80
2021/06/04 07:15:12;;;;;;;17.92;8.55;;;;;;;24.05;79.16;101148.63;5279416;28;20039;-80
2021/06/04 07:17:43;;;;;;;15.32;8.68;;;;;;;23.75;80.44;101151.13;5265413;28;20459;-80
2021/06/04 07:20:15;;;;;;;15.77;8.32;;;;;;;23.87;79.98;101154.66;5261923;28;20028;-80
2021/06/04 07:22:46;;;;;;;14.07;8.10;;;;;;;23.49;80.71;101160.34;5264199;28;20069;-80
2021/06/04 07:25:17;;;;;;;12.75;8.02;;;;;;;24.49;78.99;101142.25;5266394;28;20099;-81
2021/06/04 07:27:48;;;;;;;12.25;6.70;;;;;;;24.75;78.44;101149.81;5261056;28;20020;-80
2021/06/04 07:30:23;;;;;;;12.10;6.00;;;;;;;24.95;76.56;101152.50;5278931;28;20534;-80
2021/06/04 07:32:55;;;;;;;11.10;6.40;;;;;;;24.87;76.22;101148.78;5276884;28;20032;-80
2021/06/04 07:35:26;;;;;;;9.00;5.43;;;;;;;24.97;73.98;101149.69;5261335;28;20142;-80
2021/06/04 07:37:57;;;;;;;8.88;5.13;;;;;;;25.61;74.20;101145.78;5276010;28;20139;-81
2021/06/04 07:40:29;;;;;;;8.95;5.13;;;;;;;24.97;75.30;101155.03;5273585;28;20051;-80
2021/06/04 07:43:03;;;;;;;7.00;4.68;;;;;;;26.13;71.42;101149.03;5283251;28;20047;-80
2021/06/04 07:45:36;;;;;;;7.30;4.50;;;;;;;25.85;72.09;101154.38;5279571;28;20058;-81
2021/06/04 07:48:10;;;;;;;8.55;4.72;;;;;;;26.07;70.67;101149.63;5252311;28;20059;-80
2021/06/04 07:50:42;;;;;;;7.47;4.57;;;;;;;25.19;71.59;101154.91;5281904;28;20419;-81
2021/06/04 07:53:15;;;;;;;6.28;3.75;;;;;;;25.87;70.45;101157.75;5275926;28;20032;-80
2021/06/04 07:55:47;;;;;;;5.82;3.80;;;;;;;27.55;65.32;101169.50;5281201;28;20019;-81
2021/06/04 07:58:19;;;;;;;5.05;3.30;;;;;;;28.31;63.55;101163.75;5280303;28;20074;-81
2021/06/04 08:00:49;;;;;;;5.05;3.22;;;;;;;27.95;63.38;101154.75;5280790;28;20035;-81
2021/06/04 08:03:23;;;;;;;6.85;3.63;;;;;;;27.56;62.13;101158.63;5262069;28;20081;-81
2021/06/04 08:05:54;;;;;;;5.05;3.25;;;;;;;29.03;60.74;101157.16;5258753;28;20112;-81
2021/06/04 08:08:24;;;;;;;6.32;3.30;;;;;;;29.63;58.44;101148.94;5271534;28;20115;-81
2021/06/04 08:10:55;;;;;;;4.60;3.00;;;;;;;28.72;61.39;101157.72;5278719;28;20016;-82
2021/06/04 08:13:26;;;;;;;6.47;3.47;;;;;;;28.82;61.04;101146.72;5279487;28;21496;-81
2021/06/04 08:16:04;;;;;;;7.20;3.40;;;;;;;29.85;59.90;101139.38;5269536;28;20039;-83
2021/06/04 08:18:36;;;;;;;4.80;3.05;;;;;;;29.01;63.63;101159.13;5267490;28;20024;-82
2021/06/04 08:21:22;;;;;;;5.28;3.35;;;;;;;31.17;57.36;101144.44;5259389;28;20024;-83
2021/06/04 08:23:52;;;;;;;5.03;2.97;;;;;;;31.20;57.51;101146.81;5259965;28;20031;-82
2021/06/04 08:26:26;;;;;;;4.57;3.22;;;;;;;32.53;55.26;101150.03;5271256;28;20028;-83
2021/06/04 08:28:57;;;;;;;5.53;3.40;;;;;;;31.81;55.91;101144.22;5263530;28;20027;-83
2021/06/04 08:31:29;;;;;;;12.90;3.65;;;;;;;30.57;57.42;101150.38;5259902;28;20019;-83
2021/06/04 08:33:59;;;;;;;6.10;3.03;;;;;;;30.30;59.72;101150.66;5262800;28;20038;-83
2021/06/04 08:36:33;;;;;;;7.22;4.20;;;;;;;30.00;59.28;101153.94;5277765;28;20027;-81
2021/06/04 08:39:09;;;;;;;7.22;3.70;;;;;;;32.23;54.80;101142.00;5268322;28;20031;-81
2021/06/04 08:41:43;;;;;;;6.15;3.90;;;;;;;32.40;54.73;101143.56;5255854;28;20051;-81
2021/06/04 08:44:34;;;;;;;4.85;3.10;;;;;;;32.05;54.94;101141.41;5278149;28;20027;-81
2021/06/04 08:47:18;;;;;;;7.03;3.67;;;;;;;32.57;54.47;101145.13;5275169;28;20099;-82
2021/06/04 08:50:05;;;;;;;6.20;3.30;;;;;;;31.84;56.11;101144.72;5257171;28;20023;-81
2021/06/04 08:52:57;;;;;;;6.25;3.88;;;;;;;32.52;55.38;101137.53;5256798;28;20477;-81
2021/06/04 08:55:36;;;;;;;7.10;4.40;;;;;;;31.18;56.63;101135.31;5274447;28;20055;-81
2021/06/04 08:59:00;;;;;;;7.53;4.45;;;;;;;32.38;55.61;101135.59;5268471;28;20031;-81
2021/06/04 09:01:36;;;;;;;5.47;4.30;;;;;;;31.74;56.13;101135.16;5212111;28;20033;-81
2021/06/04 09:04:15;;;;;;;7.35;4.60;;;;;;;32.63;54.27;101133.53;5205114;28;20052;-81
2021/06/04 09:07:04;;;;;;;5.80;3.72;;;;;;;33.26;53.31;101132.97;5253928;28;20764;-82
2021/06/04 09:09:53;;;;;;;6.80;4.50;;;;;;;32.88;53.63;101143.19;5271240;28;20039;-81
2021/06/04 09:12:41;;;;;;;10.40;4.63;;;;;;;33.72;52.33;101139.06;5276208;28;20036;-81
2021/06/04 09:15:14;;;;;;;7.82;4.40;;;;;;;33.67;53.31;101142.28;5278270;28;20027;-81
2021/06/04 09:17:52;;;;;;;6.93;4.18;;;;;;;32.34;54.01;101137.00;5276480;28;20119;-81
2021/06/04 09:20:22;;;;;;;7.47;4.22;;;;;;;31.73;56.48;101130.75;5278555;28;20508;-81
2021/06/04 09:22:58;;;;;;;8.87;5.27;;;;;;;33.91;52.77;101130.31;5280060;28;20036;-81
2021/06/04 09:25:30;;;;;;;6.00;4.18;;;;;;;32.33;56.25;101137.16;5281398;28;20015;-81
2021/06/04 09:28:09;;;;;;;5.70;3.60;;;;;;;32.73;55.05;101126.88;5263325;28;20053;-81
2021/06/04 09:30:42;;;;;;;7.57;4.07;;;;;;;33.68;50.57;101126.88;5274316;28;20038;-81
2021/06/04 09:33:36;;;;;;;7.38;4.47;;;;;;;33.63;50.25;101121.19;5260785;28;20417;-81
2021/06/04 09:36:12;;;;;;;9.15;4.53;;;;;;;33.41;51.55;101136.53;5255490;28;20028;-81
2021/06/04 09:39:13;;;;;;;5.53;3.60;;;;;;;33.40;51.14;101139.41;5255007;28;20386;-80
2021/06/04 09:41:46;;;;;;;7.65;3.95;;;;;;;33.37;50.71;101126.25;5272561;28;20397;-81
2021/06/04 09:44:17;;;;;;;11.13;5.28;;;;;;;31.68;54.98;101128.56;5279825;28;20015;-81
2021/06/04 09:46:53;;;;;;;13.33;5.80;;;;;;;33.78;51.54;101111.16;5276692;28;20030;-81
2021/06/04 09:49:42;;;;;;;9.30;5.20;;;;;;;31.61;53.78;101135.69;5259181;28;20054;-80
2021/06/04 09:52:21;;;;;;;9.35;5.03;;;;;;;33.55;50.77;101132.13;5276640;28;20028;-81
2021/06/04 09:55:22;;;;;;;10.18;5.00;;;;;;;31.71;55.04;101128.22;5280309;28;20150;-81
2021/06/04 09:57:58;;;;;;;7.65;4.35;;;;;;;32.00;56.21;101124.84;5254120;28;20047;-82
2021/06/04 10:00:41;;;;;;;10.13;4.60;;;;;;;32.46;53.80;101122.03;5261306;28;20024;-82
2021/06/04 10:03:11;;;;;;;6.65;3.75;;;;;;;33.25;50.64;101122.31;5258271;28;20032;-82
2021/06/04 10:05:42;;;;;;;10.20;4.40;;;;;;;33.18;50.37;101121.34;5281068;28;20020;-82
2021/06/04 10:08:27;;;;;;;9.10;3.70;;;;;;;32.57;52.69;101127.00;5268588;28;20035;-81
2021/06/04 10:11:06;;;;;;;8.77;3.72;;;;;;;31.59;56.25;101120.66;5280193;28;20023;-80
2021/06/04 10:13:45;;;;;;;15.38;4.50;;;;;;;31.18;53.39;101122.66;5274306;28;20028;-80
2021/06/04 10:19:16;;;;;;;7.90;4.60;;;;;;;30.67;55.42;101118.66;5275650;28;20035;-81
2021/06/04 10:21:52;;;;;;;9.07;4.68;;;;;;;29.65;58.07;101127.19;5251492;28;20123;-80
2021/06/04 10:24:30;;;;;;;7.55;4.63;;;;;;;29.42;56.69;101116.13;5274973;28;20483;-81
2021/06/04 10:27:05;;;;;;;9.30;5.10;;;;;;;29.34;56.18;101124.19;5263082;28;20054;-81
2021/06/04 10:29:36;;;;;;;7.30;5.10;;;;;;;29.37;58.23;101123.84;5277109;28;20034;-80
2021/06/04 10:32:15;;;;;;;9.48;6.00;;;;;;;28.38;57.33;101122.63;5270662;28;20363;-80
2021/06/04 10:34:57;;;;;;;8.32;4.35;;;;;;;28.64;58.83;101117.28;5276989;28;20455;-80
2021/06/04 10:38:09;;;;;;;8.70;5.13;;;;;;;28.38;58.46;101121.78;5251625;28;20027;-81
2021/06/04 10:40:46;;;;;;;7.22;4.07;;;;;;;28.28;57.96;101118.31;5250182;28;20023;-81
2021/06/04 10:43:25;;;;;;;9.23;5.70;;;;;;;28.31;58.90;101126.09;5266114;28;20020;-81
2021/06/04 10:46:06;;;;;;;10.00;5.32;;;;;;;28.79;57.37;101119.25;5279840;28;20072;-81
2021/06/04 10:48:45;;;;;;;6.32;4.53;;;;;;;28.82;57.63;101121.63;5272691;28;20024;-81
2021/06/04 10:51:37;;;;;;;9.10;5.30;;;;;;;28.27;57.44;101120.13;5252373;28;20110;-80
2021/06/04 10:54:32;;;;;;;7.50;4.65;;;;;;;28.31;56.62;101116.16;5275657;28;20015;-80
2021/06/04 10:57:25;;;;;;;6.53;3.50;;;;;;;28.43;57.56;101117.63;5263049;28;20555;-81
2021/06/04 10:59:57;;;;;;;7.35;4.35;;;;;;;28.06;59.34;101119.59;5279383;28;20028;-81
2021/06/04 11:02:46;;;;;;;8.45;5.10;;;;;;;28.07;60.54;101118.59;5261260;28;20020;-80
2021/06/04 11:06:06;;;;;;;11.05;5.20;;;;;;;28.06;59.09;101116.91;5258240;28;20107;-81
2021/06/04 11:08:56;;;;;;;8.15;5.28;;;;;;;28.18;59.82;101110.31;5248698;28;20066;-81
2021/06/04 11:11:57;;;;;;;6.30;4.45;;;;;;;28.35;58.76;101117.56;5263310;28;20760;-81
2021/06/04 11:14:42;;;;;;;6.07;4.78;;;;;;;28.54;59.07;101106.63;5279112;28;20393;-82
2021/06/04 11:17:27;;;;;;;9.25;4.53;;;;;;;28.62;59.16;101112.06;5268878;28;20031;-80
2021/06/04 11:20:07;;;;;;;6.50;3.95;;;;;;;28.76;60.35;101106.09;5256660;28;20027;-80
2021/06/04 11:23:08;;;;;;;6.07;4.32;;;;;;;28.32;57.88;101103.56;5265055;28;20024;-80
2021/06/04 11:25:53;;;;;;;10.95;5.05;;;;;;;28.45;60.81;101096.78;5272327;28;20024;-81
2021/06/04 11:28:31;;;;;;;9.40;4.80;;;;;;;28.45;60.28;101099.47;5250455;28;20028;-79
2021/06/04 11:31:06;;;;;;;8.98;5.50;;;;;;;28.57;60.53;101100.06;5246144;28;20042;-80
2021/06/04 11:33:38;;;;;;;5.03;3.92;;;;;;;28.71;58.72;101096.81;5249930;28;20027;-81
2021/06/04 11:36:24;;;;;;;7.15;4.05;;;;;;;28.69;60.22;101088.91;5254140;28;20509;-80
2021/06/04 11:39:02;;;;;;;5.60;3.50;;;;;;;28.51;56.77;101088.06;5269112;28;20028;-80
2021/06/04 11:41:32;;;;;;;6.60;4.00;;;;;;;28.62;59.87;101087.84;5274106;28;20032;-81
2021/06/04 11:44:10;;;;;;;6.83;4.50;;;;;;;28.65;59.05;101076.75;5272291;28;20158;-81
2021/06/04 11:46:40;;;;;;;6.63;4.03;;;;;;;28.41;59.70;101078.41;5254985;28;20386;-79
2021/06/04 11:49:12;;;;;;;9.38;4.97;;;;;;;28.25;58.99;101084.47;5256023;28;20031;-80
2021/06/04 11:51:51;;;;;;;7.78;5.00;;;;;;;28.25;60.59;101073.72;5266092;28;20054;-80
2021/06/04 11:54:30;;;;;;;7.25;3.90;;;;;;;28.23;57.46;101069.47;5264677;22;20048;-77
2021/06/04 11:57:07;;;;;;;7.22;3.80;;;;;;;28.38;58.37;101078.72;5227609;28;20033;-78
2021/06/04 11:59:46;;;;;;;5.95;3.53;;;;;;;28.41;57.20;101079.28;5224475;28;20060;-78
2021/06/04 12:02:36;;;;;;;6.50;3.65;;;;;;;28.03;57.63;101074.19;5227530;28;20025;-78
2021/06/04 12:05:33;;;;;;;8.60;3.92;;;;;;;28.23;58.37;101069.47;5213482;28;20060;-77
2021/06/04 12:08:21;;;;;;;6.35;3.15;;;;;;;28.07;56.80;101069.34;5217566;28;20021;-78